Bellport, New York
Current Conditions -  °F | °C
As of 12:56 PM on Thursday 30 Oct 2014 (Local Time) from KHWV Reporting Station
Overcast Overcast  
Wind Chill: 57°   Ceiling: 4600
Heat Index: 57°   Visibility: 10mi
Dew Point: 42°   Wind: 8mph
Humidity: 57%   Direction: 330°NNW
Pressure: 29.97"   Gusts: NA
Location:  40.76°N, 72.94°W
Report Text: KHWV 301656Z AUTO 33007KT 10SM SCT039 BKN046 OVC060 14/06 A2997 RMK AO2 SLP149 T01390056 TSNO
Loading
Personal Weather Stations






























Interactive Weather Map
Tropical Storm Tracking
New forecast layout! Learn more

10-Day Weather Forecast

Advertisements
Track Severe Weather on mobile